sensor_id;sensor_type;location;lat;lon;timestamp;pressure;altitude;pressure_sealevel;temperature;humidity
68656;BME280;55638;51.122;13.606;2023-05-03T00:01:08;101160.78;;;8.13;49.97
68656;BME280;55638;51.122;13.606;2023-05-03T00:02:40;101157.13;;;8.14;49.72
68656;BME280;55638;51.122;13.606;2023-05-03T00:04:15;101164.31;;;8.14;49.56
68656;BME280;55638;51.122;13.606;2023-05-03T00:05:49;101166.91;;;8.15;49.67
68656;BME280;55638;51.122;13.606;2023-05-03T00:07:21;101163.34;;;8.15;49.60
68656;BME280;55638;51.122;13.606;2023-05-03T00:08:53;101157.13;;;8.14;49.47
68656;BME280;55638;51.122;13.606;2023-05-03T00:10:25;101156.25;;;8.14;49.57
68656;BME280;55638;51.122;13.606;2023-05-03T00:11:57;101155.41;;;8.13;49.50
68656;BME280;55638;51.122;13.606;2023-05-03T00:13:31;101164.31;;;8.14;49.45
68656;BME280;55638;51.122;13.606;2023-05-03T00:15:03;101167.00;;;8.14;49.46
68656;BME280;55638;51.122;13.606;2023-05-03T00:16:35;101161.72;;;8.12;49.51
68656;BME280;55638;51.122;13.606;2023-05-03T00:18:07;101162.56;;;8.13;49.31
68656;BME280;55638;51.122;13.606;2023-05-03T00:19:39;101163.53;;;8.12;49.50
68656;BME280;55638;51.122;13.606;2023-05-03T00:21:11;101164.56;;;8.09;49.40
68656;BME280;55638;51.122;13.606;2023-05-03T00:22:43;101163.72;;;8.08;49.52
68656;BME280;55638;51.122;13.606;2023-05-03T00:24:14;101170.03;;;8.07;49.40
68656;BME280;55638;51.122;13.606;2023-05-03T00:25:54;101170.91;;;8.08;49.83
68656;BME280;55638;51.122;13.606;2023-05-03T00:27:27;101169.09;;;8.08;49.33
68656;BME280;55638;51.122;13.606;2023-05-03T00:28:59;101163.81;;;8.07;49.62
68656;BME280;55638;51.122;13.606;2023-05-03T00:30:31;101171.88;;;8.07;49.41
68656;BME280;55638;51.122;13.606;2023-05-03T00:32:04;101165.63;;;8.06;49.60
68656;BME280;55638;51.122;13.606;2023-05-03T00:33:36;101163.88;;;8.05;49.47
68656;BME280;55638;51.122;13.606;2023-05-03T00:35:08;101166.56;;;8.05;49.49
68656;BME280;55638;51.122;13.606;2023-05-03T00:36:40;101162.16;;;8.04;49.45
68656;BME280;55638;51.122;13.606;2023-05-03T00:38:12;101163.13;;;8.03;49.47
68656;BME280;55638;51.122;13.606;2023-05-03T00:39:47;101169.44;;;8.02;49.44
68656;BME280;55638;51.122;13.606;2023-05-03T00:41:19;101163.19;;;8.02;49.71
68656;BME280;55638;51.122;13.606;2023-05-03T00:42:51;101173.06;;;8.01;49.66
68656;BME280;55638;51.122;13.606;2023-05-03T00:44:23;101165.97;;;8.00;49.51
68656;BME280;55638;51.122;13.606;2023-05-03T00:45:55;101162.50;;;7.98;49.54
68656;BME280;55638;51.122;13.606;2023-05-03T00:47:46;101166.06;;;7.99;49.75
68656;BME280;55638;51.122;13.606;2023-05-03T00:49:18;101162.63;;;7.97;49.69
68656;BME280;55638;51.122;13.606;2023-05-03T00:50:50;101164.41;;;7.96;49.66
68656;BME280;55638;51.122;13.606;2023-05-03T00:52:22;101161.81;;;7.95;49.75
68656;BME280;55638;51.122;13.606;2023-05-03T00:53:55;101165.38;;;7.95;49.83
68656;BME280;55638;51.122;13.606;2023-05-03T00:55:28;101169.94;;;7.93;49.92
68656;BME280;55638;51.122;13.606;2023-05-03T00:57:03;101164.69;;;7.92;50.11
68656;BME280;55638;51.122;13.606;2023-05-03T00:58:35;101174.44;;;7.93;50.00
68656;BME280;55638;51.122;13.606;2023-05-03T01:00:11;101171.94;;;7.90;49.80
68656;BME280;55638;51.122;13.606;2023-05-03T01:01:51;101178.38;;;7.87;50.55
68656;BME280;55638;51.122;13.606;2023-05-03T01:03:23;101173.00;;;7.87;49.87
68656;BME280;55638;51.122;13.606;2023-05-03T01:04:55;101169.53;;;7.85;49.91
68656;BME280;55638;51.122;13.606;2023-05-03T01:08:34;101171.78;;;7.77;50.84
68656;BME280;55638;51.122;13.606;2023-05-03T01:10:21;101163.72;;;7.77;50.19
68656;BME280;55638;51.122;13.606;2023-05-03T01:14:21;101173.94;;;7.70;50.20
68656;BME280;55638;51.122;13.606;2023-05-03T01:16:20;101169.63;;;7.68;50.54
68656;BME280;55638;51.122;13.606;2023-05-03T01:17:58;101169.63;;;7.68;50.22
68656;BME280;55638;51.122;13.606;2023-05-03T01:19:42;101174.28;;;7.64;50.27
68656;BME280;55638;51.122;13.606;2023-05-03T01:21:16;101165.34;;;7.63;49.81
68656;BME280;55638;51.122;13.606;2023-05-03T01:22:59;101169.16;;;7.59;50.54
68656;BME280;55638;51.122;13.606;2023-05-03T01:24:34;101171.00;;;7.59;50.52
68656;BME280;55638;51.122;13.606;2023-05-03T01:26:34;101175.91;;;7.51;50.91
68656;BME280;55638;51.122;13.606;2023-05-03T01:28:06;101168.53;;;7.54;50.25
68656;BME280;55638;51.122;13.606;2023-05-03T01:29:37;101169.59;;;7.52;50.28
68656;BME280;55638;51.122;13.606;2023-05-03T01:31:38;101167.16;;;7.47;50.48
68656;BME280;55638;51.122;13.606;2023-05-03T01:33:27;101168.28;;;7.43;50.60
68656;BME280;55638;51.122;13.606;2023-05-03T01:35:35;101171.13;;;7.40;50.75
68656;BME280;55638;51.122;13.606;2023-05-03T01:37:07;101170.28;;;7.39;50.06
68656;BME280;55638;51.122;13.606;2023-05-03T01:38:41;101172.16;;;7.37;49.99
68656;BME280;55638;51.122;13.606;2023-05-03T01:40:15;101166.09;;;7.34;50.59
68656;BME280;55638;51.122;13.606;2023-05-03T01:41:51;101168.03;;;7.32;50.41
68656;BME280;55638;51.122;13.606;2023-05-03T01:43:23;101163.69;;;7.29;50.44
68656;BME280;55638;51.122;13.606;2023-05-03T01:44:57;101170.94;;;7.27;50.73
68656;BME280;55638;51.122;13.606;2023-05-03T01:46:30;101173.78;;;7.24;50.60
68656;BME280;55638;51.122;13.606;2023-05-03T01:48:14;101174.03;;;7.20;51.11
68656;BME280;55638;51.122;13.606;2023-05-03T01:49:46;101168.69;;;7.20;50.45
68656;BME280;55638;51.122;13.606;2023-05-03T01:51:18;101175.94;;;7.18;50.69
68656;BME280;55638;51.122;13.606;2023-05-03T01:52:50;101165.38;;;7.14;50.68
68656;BME280;55638;51.122;13.606;2023-05-03T01:54:23;101164.59;;;7.12;50.70
68656;BME280;55638;51.122;13.606;2023-05-03T01:55:55;101172.81;;;7.09;50.55
68656;BME280;55638;51.122;13.606;2023-05-03T01:57:27;101174.69;;;7.07;50.57
68656;BME280;55638;51.122;13.606;2023-05-03T01:59:00;101174.78;;;7.06;50.49
68656;BME280;55638;51.122;13.606;2023-05-03T02:00:32;101172.25;;;7.03;50.65
68656;BME280;55638;51.122;13.606;2023-05-03T02:02:04;101174.16;;;7.01;50.75
68656;BME280;55638;51.122;13.606;2023-05-03T02:03:37;101170.66;;;6.99;50.76
68656;BME280;55638;51.122;13.606;2023-05-03T02:05:09;101170.75;;;6.97;50.79
68656;BME280;55638;51.122;13.606;2023-05-03T02:06:41;101174.41;;;6.96;50.79
68656;BME280;55638;51.122;13.606;2023-05-03T02:08:13;101169.22;;;6.93;50.79
68656;BME280;55638;51.122;13.606;2023-05-03T02:09:45;101163.03;;;6.91;50.85
68656;BME280;55638;51.122;13.606;2023-05-03T02:11:17;101166.69;;;6.90;50.89
68656;BME280;55638;51.122;13.606;2023-05-03T02:12:49;101155.25;;;6.86;50.74
68656;BME280;55638;51.122;13.606;2023-05-03T02:14:21;101171.34;;;6.86;50.95
68656;BME280;55638;51.122;13.606;2023-05-03T02:15:53;101161.59;;;6.84;50.91
68656;BME280;55638;51.122;13.606;2023-05-03T02:17:26;101175.00;;;6.84;50.78
68656;BME280;55638;51.122;13.606;2023-05-03T02:18:58;101165.31;;;6.81;50.81
68656;BME280;55638;51.122;13.606;2023-05-03T02:20:30;101172.50;;;6.81;50.69
68656;BME280;55638;51.122;13.606;2023-05-03T02:22:07;101167.28;;;6.78;50.67
68656;BME280;55638;51.122;13.606;2023-05-03T02:23:39;101169.09;;;6.77;50.56
68656;BME280;55638;51.122;13.606;2023-05-03T02:25:11;101162.09;;;6.75;50.68
68656;BME280;55638;51.122;13.606;2023-05-03T02:26:43;101167.44;;;6.75;50.75
68656;BME280;55638;51.122;13.606;2023-05-03T02:28:14;101170.28;;;6.72;50.70
68656;BME280;55638;51.122;13.606;2023-05-03T02:29:46;101171.25;;;6.70;50.70
68656;BME280;55638;51.122;13.606;2023-05-03T02:31:18;101169.47;;;6.69;50.79
68656;BME280;55638;51.122;13.606;2023-05-03T02:32:50;101172.25;;;6.68;50.83
68656;BME280;55638;51.122;13.606;2023-05-03T02:34:26;101173.22;;;6.67;50.93
68656;BME280;55638;51.122;13.606;2023-05-03T02:35:58;101163.50;;;6.64;50.90
68656;BME280;55638;51.122;13.606;2023-05-03T02:37:30;101162.72;;;6.62;50.90
68656;BME280;55638;51.122;13.606;2023-05-03T02:39:04;101158.31;;;6.61;50.74
68656;BME280;55638;51.122;13.606;2023-05-03T02:40:37;101168.16;;;6.61;50.81
68656;BME280;55638;51.122;13.606;2023-05-03T02:42:09;101163.72;;;6.60;50.77
68656;BME280;55638;51.122;13.606;2023-05-03T02:43:41;101165.53;;;6.59;50.82
68656;BME280;55638;51.122;13.606;2023-05-03T02:45:13;101159.41;;;6.57;50.79
68656;BME280;55638;51.122;13.606;2023-05-03T02:46:45;101161.31;;;6.55;50.65
68656;BME280;55638;51.122;13.606;2023-05-03T02:48:19;101170.28;;;6.54;50.73
68656;BME280;55638;51.122;13.606;2023-05-03T02:49:51;101167.66;;;6.53;50.77
68656;BME280;55638;51.122;13.606;2023-05-03T02:51:23;101174.84;;;6.52;50.69
68656;BME280;55638;51.122;13.606;2023-05-03T02:52:55;101174.94;;;6.51;50.87
68656;BME280;55638;51.122;13.606;2023-05-03T02:54:27;101182.25;;;6.47;50.98
68656;BME280;55638;51.122;13.606;2023-05-03T02:56:00;101184.91;;;6.47;50.82
68656;BME280;55638;51.122;13.606;2023-05-03T02:57:32;101184.06;;;6.46;50.86
68656;BME280;55638;51.122;13.606;2023-05-03T02:59:04;101181.38;;;6.46;50.75
68656;BME280;55638;51.122;13.606;2023-05-03T03:00:36;101187.69;;;6.45;50.70
68656;BME280;55638;51.122;13.606;2023-05-03T03:02:08;101188.63;;;6.44;50.78
68656;BME280;55638;51.122;13.606;2023-05-03T03:03:41;101190.47;;;6.44;50.82
68656;BME280;55638;51.122;13.606;2023-05-03T03:05:13;101198.50;;;6.44;50.92
68656;BME280;55638;51.122;13.606;2023-05-03T03:06:50;101194.06;;;6.43;50.77
68656;BME280;55638;51.122;13.606;2023-05-03T03:08:24;101194.06;;;6.43;50.85
68656;BME280;55638;51.122;13.606;2023-05-03T03:09:58;101201.16;;;6.44;50.80
68656;BME280;55638;51.122;13.606;2023-05-03T03:11:30;101200.28;;;6.43;50.87
68656;BME280;55638;51.122;13.606;2023-05-03T03:13:02;101206.59;;;6.42;50.69
68656;BME280;55638;51.122;13.606;2023-05-03T03:14:39;101203.06;;;6.42;50.77
68656;BME280;55638;51.122;13.606;2023-05-03T03:16:13;101203.91;;;6.42;50.66
68656;BME280;55638;51.122;13.606;2023-05-03T03:17:45;101202.19;;;6.41;50.69
68656;BME280;55638;51.122;13.606;2023-05-03T03:19:18;101205.72;;;6.42;50.69
68656;BME280;55638;51.122;13.606;2023-05-03T03:20:50;101204.88;;;6.41;50.70
68656;BME280;55638;51.122;13.606;2023-05-03T03:22:23;101195.97;;;6.41;50.79
68656;BME280;55638;51.122;13.606;2023-05-03T03:23:56;101207.53;;;6.41;50.63
68656;BME280;55638;51.122;13.606;2023-05-03T03:25:28;101208.47;;;6.40;50.80
68656;BME280;55638;51.122;13.606;2023-05-03T03:27:01;101207.59;;;6.40;50.80
68656;BME280;55638;51.122;13.606;2023-05-03T03:28:34;101208.56;;;6.39;50.79
68656;BME280;55638;51.122;13.606;2023-05-03T03:30:11;101204.16;;;6.38;50.69
68656;BME280;55638;51.122;13.606;2023-05-03T03:31:54;101205.06;;;6.37;50.76
68656;BME280;55638;51.122;13.606;2023-05-03T03:33:27;101213.09;;;6.37;50.68
68656;BME280;55638;51.122;13.606;2023-05-03T03:35:05;101215.00;;;6.35;50.81
68656;BME280;55638;51.122;13.606;2023-05-03T03:36:39;101219.50;;;6.34;50.73
68656;BME280;55638;51.122;13.606;2023-05-03T03:38:11;101220.44;;;6.33;50.81
68656;BME280;55638;51.122;13.606;2023-05-03T03:39:51;101211.63;;;6.31;50.70
68656;BME280;55638;51.122;13.606;2023-05-03T03:41:23;101220.59;;;6.30;50.71
68656;BME280;55638;51.122;13.606;2023-05-03T03:42:56;101219.72;;;6.30;50.71
68656;BME280;55638;51.122;13.606;2023-05-03T03:44:29;101227.84;;;6.28;50.49
68656;BME280;55638;51.122;13.606;2023-05-03T03:46:01;101219.88;;;6.27;50.77
68656;BME280;55638;51.122;13.606;2023-05-03T03:47:33;101226.19;;;6.26;50.87
68656;BME280;55638;51.122;13.606;2023-05-03T03:49:05;101228.84;;;6.26;50.74
68656;BME280;55638;51.122;13.606;2023-05-03T03:50:39;101225.31;;;6.25;50.98
68656;BME280;55638;51.122;13.606;2023-05-03T03:52:12;101224.44;;;6.25;50.92
68656;BME280;55638;51.122;13.606;2023-05-03T03:53:44;101227.13;;;6.25;50.77
68656;BME280;55638;51.122;13.606;2023-05-03T03:55:16;101236.88;;;6.26;50.81
68656;BME280;55638;51.122;13.606;2023-05-03T03:56:51;101233.41;;;6.23;50.96
68656;BME280;55638;51.122;13.606;2023-05-03T03:58:23;101231.59;;;6.24;50.92
68656;BME280;55638;51.122;13.606;2023-05-03T03:59:57;101240.50;;;6.25;50.94
68656;BME280;55638;51.122;13.606;2023-05-03T04:01:31;101237.84;;;6.25;50.83
68656;BME280;55638;51.122;13.606;2023-05-03T04:03:04;101241.38;;;6.25;51.09
68656;BME280;55638;51.122;13.606;2023-05-03T04:04:38;101240.44;;;6.26;50.88
68656;BME280;55638;51.122;13.606;2023-05-03T04:06:10;101241.38;;;6.25;50.85
68656;BME280;55638;51.122;13.606;2023-05-03T04:07:42;101240.44;;;6.26;51.07
68656;BME280;55638;51.122;13.606;2023-05-03T04:09:15;101227.91;;;6.27;51.09
68656;BME280;55638;51.122;13.606;2023-05-03T04:10:49;101240.34;;;6.28;51.17
68656;BME280;55638;51.122;13.606;2023-05-03T04:12:22;101242.97;;;6.29;51.01
68656;BME280;55638;51.122;13.606;2023-05-03T04:13:54;101251.78;;;6.31;50.84
68656;BME280;55638;51.122;13.606;2023-05-03T04:15:25;101254.38;;;6.33;51.01
68656;BME280;55638;51.122;13.606;2023-05-03T04:17:00;101246.34;;;6.33;50.92
68656;BME280;55638;51.122;13.606;2023-05-03T04:18:32;101257.88;;;6.35;50.83
68656;BME280;55638;51.122;13.606;2023-05-03T04:20:05;101262.28;;;6.36;50.91
68656;BME280;55638;51.122;13.606;2023-05-03T04:21:43;101257.72;;;6.38;50.97
68656;BME280;55638;51.122;13.606;2023-05-03T04:23:15;101263.84;;;6.40;50.92
68656;BME280;55638;51.122;13.606;2023-05-03T04:24:47;101260.25;;;6.41;50.90
68656;BME280;55638;51.122;13.606;2023-05-03T04:26:20;101258.34;;;6.43;50.98
68656;BME280;55638;51.122;13.606;2023-05-03T04:28:07;101269.84;;;6.45;50.76
68656;BME280;55638;51.122;13.606;2023-05-03T04:29:43;101263.53;;;6.46;50.86
68656;BME280;55638;51.122;13.606;2023-05-03T04:31:15;101273.25;;;6.49;50.82
68656;BME280;55638;51.122;13.606;2023-05-03T04:32:50;101265.13;;;6.50;50.60
68656;BME280;55638;51.122;13.606;2023-05-03T04:34:26;101281.03;;;6.53;50.93
68656;BME280;55638;51.122;13.606;2023-05-03T04:36:01;101279.19;;;6.55;50.83
68656;BME280;55638;51.122;13.606;2023-05-03T04:37:34;101291.47;;;6.59;50.98
68656;BME280;55638;51.122;13.606;2023-05-03T04:39:06;101290.59;;;6.59;50.99
68656;BME280;55638;51.122;13.606;2023-05-03T04:40:39;101290.41;;;6.63;50.70
68656;BME280;55638;51.122;13.606;2023-05-03T04:42:13;101286.75;;;6.64;50.64
68656;BME280;55638;51.122;13.606;2023-05-03T04:43:49;101291.00;;;6.68;50.61
68656;BME280;55638;51.122;13.606;2023-05-03T04:45:21;101293.63;;;6.70;50.52
68656;BME280;55638;51.122;13.606;2023-05-03T04:46:53;101297.03;;;6.74;50.64
68656;BME280;55638;51.122;13.606;2023-05-03T04:48:25;101296.78;;;6.78;50.69
68656;BME280;55638;51.122;13.606;2023-05-03T04:49:57;101303.81;;;6.81;50.64
68656;BME280;55638;51.122;13.606;2023-05-03T04:51:30;101301.91;;;6.83;50.59
68656;BME280;55638;51.122;13.606;2023-05-03T04:53:03;101292.88;;;6.85;50.54
68656;BME280;55638;51.122;13.606;2023-05-03T04:54:37;101298.94;;;6.89;50.39
68656;BME280;55638;51.122;13.606;2023-05-03T04:56:10;101296.97;;;6.92;50.24
68656;BME280;55638;51.122;13.606;2023-05-03T04:57:43;101303.09;;;6.96;50.38
68656;BME280;55638;51.122;13.606;2023-05-03T04:59:17;101300.25;;;6.99;50.27
68656;BME280;55638;51.122;13.606;2023-05-03T05:00:49;101300.06;;;7.02;50.06
68656;BME280;55638;51.122;13.606;2023-05-03T05:02:28;101296.31;;;7.06;50.35
68656;BME280;55638;51.122;13.606;2023-05-03T05:04:01;101299.75;;;7.08;50.26
68656;BME280;55638;51.122;13.606;2023-05-03T05:05:41;101301.34;;;7.12;50.10
68656;BME280;55638;51.122;13.606;2023-05-03T05:07:14;101291.22;;;7.18;49.93
68656;BME280;55638;51.122;13.606;2023-05-03T05:08:49;101292.91;;;7.20;49.90
68656;BME280;55638;51.122;13.606;2023-05-03T05:10:21;101294.47;;;7.24;50.10
68656;BME280;55638;51.122;13.606;2023-05-03T05:11:53;101299.59;;;7.29;49.87
68656;BME280;55638;51.122;13.606;2023-05-03T05:13:29;101302.13;;;7.32;49.56
68656;BME280;55638;51.122;13.606;2023-05-03T05:15:01;101301.97;;;7.35;49.66
68656;BME280;55638;51.122;13.606;2023-05-03T05:16:33;101307.16;;;7.38;49.69
68656;BME280;55638;51.122;13.606;2023-05-03T05:18:06;101309.66;;;7.41;49.64
68656;BME280;55638;51.122;13.606;2023-05-03T05:19:38;101309.44;;;7.46;49.59
68656;BME280;55638;51.122;13.606;2023-05-03T05:21:10;101312.72;;;7.51;49.52
68656;BME280;55638;51.122;13.606;2023-05-03T05:22:42;101312.50;;;7.55;49.42
68656;BME280;55638;51.122;13.606;2023-05-03T05:24:14;101315.03;;;7.58;49.29
68656;BME280;55638;51.122;13.606;2023-05-03T05:25:48;101313.91;;;7.62;49.54
68656;BME280;55638;51.122;13.606;2023-05-03T05:27:20;101315.41;;;7.68;49.36
68656;BME280;55638;51.122;13.606;2023-05-03T05:28:55;101319.66;;;7.72;49.16
68656;BME280;55638;51.122;13.606;2023-05-03T05:30:27;101323.03;;;7.76;49.02
68656;BME280;55638;51.122;13.606;2023-05-03T05:31:59;101323.66;;;7.81;49.09
68656;BME280;55638;51.122;13.606;2023-05-03T05:33:34;101326.03;;;7.87;49.04
68656;BME280;55638;51.122;13.606;2023-05-03T05:35:07;101331.13;;;7.92;49.06
68656;BME280;55638;51.122;13.606;2023-05-03T05:36:40;101333.56;;;7.96;49.01
68656;BME280;55638;51.122;13.606;2023-05-03T05:38:15;101332.47;;;8.00;48.98
68656;BME280;55638;51.122;13.606;2023-05-03T05:39:48;101330.38;;;8.05;48.78
68656;BME280;55638;51.122;13.606;2023-05-03T05:41:22;101322.94;;;8.10;48.86
68656;BME280;55638;51.122;13.606;2023-05-03T05:42:54;101326.22;;;8.16;48.97
68656;BME280;55638;51.122;13.606;2023-05-03T05:44:29;101331.25;;;8.22;48.75
68656;BME280;55638;51.122;13.606;2023-05-03T05:46:00;101333.66;;;8.28;48.91
68656;BME280;55638;51.122;13.606;2023-05-03T05:47:33;101336.00;;;8.34;48.52
68656;BME280;55638;51.122;13.606;2023-05-03T05:49:06;101331.13;;;8.41;48.26
68656;BME280;55638;51.122;13.606;2023-05-03T05:50:38;101339.81;;;8.46;48.26
68656;BME280;55638;51.122;13.606;2023-05-03T05:52:13;101338.41;;;8.54;48.16
68656;BME280;55638;51.122;13.606;2023-05-03T05:53:45;101336.34;;;8.60;47.78
68656;BME280;55638;51.122;13.606;2023-05-03T05:55:19;101339.63;;;8.65;47.56
68656;BME280;55638;51.122;13.606;2023-05-03T05:56:53;101337.44;;;8.71;47.45
68656;BME280;55638;51.122;13.606;2023-05-03T05:58:25;101337.19;;;8.76;47.38
68656;BME280;55638;51.122;13.606;2023-05-03T05:59:59;101338.56;;;8.83;47.41
68656;BME280;55638;51.122;13.606;2023-05-03T06:01:31;101343.59;;;8.89;47.25
68656;BME280;55638;51.122;13.606;2023-05-03T06:03:04;101339.59;;;8.96;47.36
68656;BME280;55638;51.122;13.606;2023-05-03T06:04:36;101343.75;;;9.02;47.04
68656;BME280;55638;51.122;13.606;2023-05-03T06:06:09;101343.28;;;9.10;47.10
68656;BME280;55638;51.122;13.606;2023-05-03T06:07:41;101335.72;;;9.16;46.63
68656;BME280;55638;51.122;13.606;2023-05-03T06:09:13;101338.16;;;9.21;46.65
68656;BME280;55638;51.122;13.606;2023-05-03T06:10:58;101335.97;;;9.27;46.63
68656;BME280;55638;51.122;13.606;2023-05-03T06:12:31;101342.69;;;9.35;46.62
68656;BME280;55638;51.122;13.606;2023-05-03T06:14:03;101341.47;;;9.40;46.61
68656;BME280;55638;51.122;13.606;2023-05-03T06:15:42;101341.09;;;9.46;46.63
68656;BME280;55638;51.122;13.606;2023-05-03T06:17:14;101343.25;;;9.56;46.54
68656;BME280;55638;51.122;13.606;2023-05-03T06:18:46;101342.78;;;9.63;46.34
68656;BME280;55638;51.122;13.606;2023-05-03T06:20:17;101345.88;;;9.71;46.17
68656;BME280;55638;51.122;13.606;2023-05-03T06:21:51;101339.25;;;9.77;46.13
68656;BME280;55638;51.122;13.606;2023-05-03T06:23:23;101339.66;;;9.85;46.30
68656;BME280;55638;51.122;13.606;2023-05-03T06:24:56;101332.81;;;9.94;46.31
68656;BME280;55638;51.122;13.606;2023-05-03T06:26:29;101340.00;;;10.08;46.71
68656;BME280;55638;51.122;13.606;2023-05-03T06:28:01;101345.28;;;10.24;46.31
68656;BME280;55638;51.122;13.606;2023-05-03T06:29:36;101346.03;;;10.40;46.11
68656;BME280;55638;51.122;13.606;2023-05-03T06:31:07;101350.56;;;10.54;45.75
68656;BME280;55638;51.122;13.606;2023-05-03T06:32:41;101343.22;;;10.70;45.75
68656;BME280;55638;51.122;13.606;2023-05-03T06:34:17;101343.75;;;10.89;45.57
68656;BME280;55638;51.122;13.606;2023-05-03T06:35:50;101332.47;;;11.10;45.95
68656;BME280;55638;51.122;13.606;2023-05-03T06:37:23;101341.69;;;11.33;45.87
68656;BME280;55638;51.122;13.606;2023-05-03T06:38:54;101337.19;;;11.59;45.86
68656;BME280;55638;51.122;13.606;2023-05-03T06:40:26;101334.53;;;11.85;45.69
68656;BME280;55638;51.122;13.606;2023-05-03T06:41:58;101341.53;;;12.13;45.55
68656;BME280;55638;51.122;13.606;2023-05-03T06:43:37;101345.56;;;12.44;45.36
68656;BME280;55638;51.122;13.606;2023-05-03T06:45:10;101341.38;;;12.77;44.70
68656;BME280;55638;51.122;13.606;2023-05-03T06:46:42;101339.09;;;13.07;44.46
68656;BME280;55638;51.122;13.606;2023-05-03T06:48:14;101337.59;;;13.38;44.31
68656;BME280;55638;51.122;13.606;2023-05-03T06:49:47;101333.47;;;13.68;43.76
68656;BME280;55638;51.122;13.606;2023-05-03T06:51:19;101333.88;;;13.97;43.26
68656;BME280;55638;51.122;13.606;2023-05-03T06:52:53;101340.78;;;14.24;42.37
68656;BME280;55638;51.122;13.606;2023-05-03T06:54:25;101327.94;;;14.48;42.20
68656;BME280;55638;51.122;13.606;2023-05-03T06:55:57;101339.53;;;14.73;41.80
68656;BME280;55638;51.122;13.606;2023-05-03T06:57:29;101336.63;;;14.97;41.47
68656;BME280;55638;51.122;13.606;2023-05-03T06:59:01;101334.81;;;15.18;41.38
68656;BME280;55638;51.122;13.606;2023-05-03T07:00:34;101335.06;;;15.36;40.43
68656;BME280;55638;51.122;13.606;2023-05-03T07:02:06;101346.72;;;15.59;40.79
68656;BME280;55638;51.122;13.606;2023-05-03T07:03:38;101339.78;;;15.76;40.43
68656;BME280;55638;51.122;13.606;2023-05-03T07:05:12;101339.31;;;15.92;39.45
68656;BME280;55638;51.122;13.606;2023-05-03T07:06:44;101341.53;;;16.08;39.32
68656;BME280;55638;51.122;13.606;2023-05-03T07:08:27;101341.91;;;16.24;38.77
68656;BME280;55638;51.122;13.606;2023-05-03T07:09:59;101333.78;;;16.34;38.52
68656;BME280;55638;51.122;13.606;2023-05-03T07:11:31;101332.81;;;16.44;37.63
68656;BME280;55638;51.122;13.606;2023-05-03T07:13:05;101335.72;;;16.53;37.77
68656;BME280;55638;51.122;13.606;2023-05-03T07:14:38;101330.59;;;16.59;37.79
68656;BME280;55638;51.122;13.606;2023-05-03T07:16:10;101331.91;;;16.65;37.25
68656;BME280;55638;51.122;13.606;2023-05-03T07:17:42;101340.94;;;16.75;36.80
68656;BME280;55638;51.122;13.606;2023-05-03T07:19:14;101340.50;;;16.80;36.92
68656;BME280;55638;51.122;13.606;2023-05-03T07:20:46;101336.34;;;16.85;36.61
68656;BME280;55638;51.122;13.606;2023-05-03T07:22:19;101338.53;;;16.91;36.63
68656;BME280;55638;51.122;13.606;2023-05-03T07:23:58;101342.53;;;16.97;36.66
68656;BME280;55638;51.122;13.606;2023-05-03T07:25:30;101329.50;;;17.01;36.21
68656;BME280;55638;51.122;13.606;2023-05-03T07:27:02;101337.09;;;17.07;35.92
68656;BME280;55638;51.122;13.606;2023-05-03T07:28:34;101329.50;;;17.10;35.75
68656;BME280;55638;51.122;13.606;2023-05-03T07:30:06;101328.97;;;17.16;35.69
68656;BME280;55638;51.122;13.606;2023-05-03T07:31:38;101330.22;;;17.22;35.50
68656;BME280;55638;51.122;13.606;2023-05-03T07:33:10;101328.06;;;17.26;35.09
68656;BME280;55638;51.122;13.606;2023-05-03T07:34:43;101321.19;;;17.31;35.22
68656;BME280;55638;51.122;13.606;2023-05-03T07:36:14;101321.47;;;17.38;35.59
68656;BME280;55638;51.122;13.606;2023-05-03T07:37:46;101312.88;;;17.43;35.07
68656;BME280;55638;51.122;13.606;2023-05-03T07:39:18;101319.75;;;17.47;34.84
68656;BME280;55638;51.122;13.606;2023-05-03T07:40:50;101313.72;;;17.53;34.42
68656;BME280;55638;51.122;13.606;2023-05-03T07:42:23;101311.38;;;17.58;34.29
68656;BME280;55638;51.122;13.606;2023-05-03T07:43:55;101310.81;;;17.64;34.15
68656;BME280;55638;51.122;13.606;2023-05-03T07:45:27;101311.22;;;17.69;34.12
68656;BME280;55638;51.122;13.606;2023-05-03T07:46:59;101309.63;;;17.76;34.16
68656;BME280;55638;51.122;13.606;2023-05-03T07:48:31;101304.44;;;17.83;33.69
68656;BME280;55638;51.122;13.606;2023-05-03T07:50:03;101310.16;;;17.90;34.09
68656;BME280;55638;51.122;13.606;2023-05-03T07:51:37;101312.31;;;17.96;33.30
68656;BME280;55638;51.122;13.606;2023-05-03T07:53:10;101306.41;;;18.00;32.90
68656;BME280;55638;51.122;13.606;2023-05-03T07:54:42;101321.03;;;18.09;32.99
68656;BME280;55638;51.122;13.606;2023-05-03T07:56:16;101320.00;;;18.10;32.99
68656;BME280;55638;51.122;13.606;2023-05-03T07:57:48;101318.84;;;18.13;32.59
68656;BME280;55638;51.122;13.606;2023-05-03T07:59:20;101322.31;;;18.15;32.45
68656;BME280;55638;51.122;13.606;2023-05-03T08:00:51;101318.72;;;18.14;32.48
68656;BME280;55638;51.122;13.606;2023-05-03T08:02:23;101322.13;;;18.16;32.13
68656;BME280;55638;51.122;13.606;2023-05-03T08:03:55;101320.13;;;18.18;32.09
68656;BME280;55638;51.122;13.606;2023-05-03T08:05:29;101318.97;;;18.21;32.05
68656;BME280;55638;51.122;13.606;2023-05-03T08:07:01;101311.66;;;18.21;32.00
68656;BME280;55638;51.122;13.606;2023-05-03T08:08:33;101311.34;;;18.24;32.05
68656;BME280;55638;51.122;13.606;2023-05-03T08:10:07;101312.03;;;18.26;32.26
68656;BME280;55638;51.122;13.606;2023-05-03T08:11:39;101315.47;;;18.28;32.14
68656;BME280;55638;51.122;13.606;2023-05-03T08:13:14;101317.75;;;18.33;31.96